An Dro Mad — FAC2287 — position and weather

sailwx.info

Track history (hours):
 
Tides and Currents Weather Stations Pressure Air Temp Water Temp Dewpoint Dewpoint Depression Visibility Wind Speed Wind Dir Waves Ship Positions

An Dro Mad

Last reported at 2018-May-27 12:07 UTC. Time now 2018-May-28 01:35 UTC.
Position N 47°29' W 003°06'.

Length 15 m.

Type: Sailing vessel. MMSI: 227263490.

Date/timePositionNaut miles runAvg speedWind from/ knotsBaromVisibWave heightAir tempDewpointWater temp
2018-May-27 12:07N 47°29' W 003°06'  
2018-May-21 13:02N 47°29' W 003°06'0 0.0
2018-May-21 12:59N 47°29' W 003°06'1 1.4
2018-May-21 12:28N 47°29' W 003°05'2 4.8
2018-May-21 12:00N 47°27' W 003°03'3 5.2
2018-May-21 11:30N 47°25' W 003°03'10 0.4
2018-May-20 11:54N 47°21' W 003°17'2 4.8
2018-May-20 11:29N 47°23' W 003°17'3 5.9
2018-May-20 11:00N 47°25' W 003°14'3 6.0
2018-May-20 10:30N 47°25' W 003°10'3 5.2
2018-May-20 09:58N 47°25' W 003°06'2 4.7
2018-May-20 09:29N 47°27' W 003°02'2 4.8
2018-May-20 08:58N 47°29' W 003°04'1 1.9
2018-May-20 08:30N 47°29' W 003°05'1 1.4
2018-May-20 08:00N 47°29' W 003°06'0 0.0
2018-May-19 17:21N 47°29' W 003°06'  
Track history (hours):
 
Tides and Currents Weather Stations Pressure Air Temp Water Temp Dewpoint Dewpoint Depression Visibility Wind Speed Wind Dir Waves Ship Positions

An Dro Mad

Last reported at 2018-May-27 12:07 UTC. Time now 2018-May-28 01:35 UTC.
Position N 47°29' W 003°06'.

Length 15 m.

Type: Sailing vessel. MMSI: 227263490.

Date/timePositionNaut miles runAvg speedWind from/ knotsBaromVisibWave heightAir tempDewpointWater temp
2018-May-27 12:07N 47°29' W 003°06'  
2018-May-21 13:02N 47°29' W 003°06'0 0.0
2018-May-21 12:59N 47°29' W 003°06'1 1.4
2018-May-21 12:28N 47°29' W 003°05'2 4.8
2018-May-21 12:00N 47°27' W 003°03'3 5.2
2018-May-21 11:30N 47°25' W 003°03'10 0.4
2018-May-20 11:54N 47°21' W 003°17'2 4.8
2018-May-20 11:29N 47°23' W 003°17'3 5.9
2018-May-20 11:00N 47°25' W 003°14'3 6.0
2018-May-20 10:30N 47°25' W 003°10'3 5.2
2018-May-20 09:58N 47°25' W 003°06'2 4.7
2018-May-20 09:29N 47°27' W 003°02'2 4.8
2018-May-20 08:58N 47°29' W 003°04'1 1.9
2018-May-20 08:30N 47°29' W 003°05'1 1.4
2018-May-20 08:00N 47°29' W 003°06'0 0.0
2018-May-19 17:21N 47°29' W 003°06'  

Dump ship's entire track history